Data for 10/13/2006

Time Sea-Level Adjusted Pressure Absolute Pressure Temperature Relative Humidity Dew Point   
(mb) (inHg) (mb) (inHg) (C) (F) (%) (C) (F)
00:05 1016 30 846 24.98 6.3 43.3 58 -1.4 29.4
00:10 1016 30 846 24.98 6.5 43.7 57 -1.3 29.7
00:15 1016 30 846 24.98 6.5 43.7 57 -1.4 29.5
00:20 1016 30 846 24.98 6.6 43.9 57 -1.3 29.6
00:25 1016 30 846 24.98 6.7 44 56 -1.3 29.6
00:30 1016 30 846 24.98 6.6 43.9 57 -1.2 29.8
00:35 1016 30 846 24.98 6.4 43.5 58 -1.2 29.9
00:40 1017 30.03 846 24.98 6 42.9 60 -1.2 29.9
00:45 1017 30.03 846 24.98 5.8 42.4 61 -1.2 29.9
00:50 1016 30 846 24.98 5.6 42.1 62 -1.2 29.9
00:55 1017 30.03 846 24.98 5.3 41.5 62 -1.3 29.7
01:00 1017 30.03 846 24.98 5.2 41.4 63 -1.3 29.6
01:05 1017 30.03 846 24.98 5.4 41.7 62 -1.4 29.5
01:10 1017 30.03 846 24.98 5.6 42.2 59 -1.6 29.1
01:15 1017 30.03 846 24.98 5.6 42.1 61 -1.3 29.7
01:20 1017 30.03 846 24.98 5.6 42.1 61 -1.4 29.5
01:25 1017 30.03 846 24.98 5.6 42.1 61 -1.3 29.7
01:30 1017 30.03 846 24.98 5.5 41.9 62 -1.2 29.8
01:35 1017 30.03 846 24.98 5.4 41.6 63 -1.2 29.8
01:40 1017 30.03 846 24.98 5.4 41.7 62 -1.4 29.6
01:45 1017 30.03 846 24.98 5.5 41.9 61 -1.3 29.6
01:50 1017 30.03 846 24.98 5.7 42.3 60 -1.5 29.3
01:55 1017 30.03 846 24.98 6 42.7 60 -1.3 29.7
02:00 1017 30.03 846 24.98 5.8 42.4 61 -1.2 29.8
02:05 1017 30.03 846 24.98 5.9 42.6 59 -1.4 29.4
02:10 1017 30.03 846 24.98 6.2 43.1 57 -1.6 29.1
02:15 1017 30.03 846 24.98 6.2 43.2 58 -1.3 29.7
02:20 1017 30.03 846 24.98 6.1 43 58 -1.6 29.2
02:25 1017 30.03 846 24.98 6.2 43.2 58 -1.4 29.5
02:30 1017 30.03 846 24.98 6.4 43.4 56 -1.8 28.8
02:35 1017 30.03 846 24.98 6.7 44.1 55 -1.6 29.1
02:40 1017 30.03 846 24.98 6.5 43.7 57 -1.4 29.6
02:45 1017 30.03 846 24.98 6.4 43.5 58 -1.3 29.7
02:50 1017 30.03 846 24.98 5.9 42.6 60 -1.4 29.5
02:55 1017 30.03 846 24.98 6.1 43 58 -1.5 29.3
03:00 1017 30.03 846 24.98 6.2 43.1 58 -1.5 29.3
03:05 1017 30.03 846 24.98 5.6 42.1 61 -1.3 29.7
03:10 1017 30.03 846 24.98 5.7 42.2 58 -1.8 28.7
03:15 1017 30.03 846 24.98 6.2 43.2 57 -1.5 29.2
03:20 1017 30.03 846 24.98 6 42.9 59 -1.3 29.7
03:25 1017 30.03 846 24.98 5.5 42 61 -1.4 29.4
03:30 1017 30.03 846 24.98 5.4 41.8 61 -1.4 29.4
03:35 1017 30.03 846 24.98 5.1 41.1 63 -1.4 29.5
03:40 1017 30.03 846 24.98 4.7 40.5 64 -1.4 29.4
03:45 1017 30.03 846 24.98 4.8 40.7 63 -1.7 28.9
03:50 1017 30.03 846 24.98 5.3 41.5 61 -1.7 29
03:55 1017 30.03 846 24.98 5.2 41.3 62 -1.4 29.4
04:00 1017 30.03 846 24.98 4.9 40.8 63 -1.6 29.1
04:05 1017 30.03 846 24.98 5.1 41.2 61 -1.8 28.8
04:10 1017 30.03 846 24.98 5 41 63 -1.4 29.4
04:15 1017 30.03 846 24.98 4.6 40.2 64 -1.7 29
04:20 1017 30.03 846 24.98 4.6 40.3 65 -1.4 29.4
04:25 1017 30.03 846 24.98 4.3 39.8 64 -1.8 28.8
04:30 1017 30.03 846 24.98 4.4 39.9 65 -1.6 29.2
04:35 1017 30.03 846 24.98 4.1 39.4 66 -1.6 29
04:40 1017 30.03 846 24.98 4 39.1 66 -1.7 28.9
04:45 1017 30.03 846 24.98 3.7 38.7 68 -1.6 29.2
04:50 1017 30.03 846 24.98 3.4 38.1 69 -1.6 29.1
04:55 1017 30.03 846 24.98 3.2 37.7 70 -1.7 28.9
05:00 1017 30.03 846 24.98 3.3 38 69 -1.9 28.6
05:05 1017 30.03 846 24.98 4 39.3 66 -1.8 28.8
05:10 1017 30.03 846 24.98 4.3 39.8 65 -1.7 28.9
05:15 1017 30.03 846 24.98 4.5 40.1 64 -1.7 29
05:20 1017 30.03 846 24.98 4.6 40.3 63 -1.7 28.9
05:25 1017 30.03 846 24.98 4.8 40.7 63 -1.7 28.9
05:30 1017 30.03 846 24.98 5 40.9 62 -1.7 28.9
05:35 1017 30.03 846 24.98 5 41 62 -1.7 29
05:40 1017 30.03 846 24.98 4.2 39.5 67 -1.5 29.4
05:45 1017 30.03 846 24.98 4.3 39.8 65 -1.7 28.9
05:50 1017 30.03 846 24.98 4.2 39.5 65 -1.8 28.8
05:55 1017 30.03 846 24.98 4.2 39.6 65 -1.7 28.9
06:00 1017 30.03 846 24.98 4 39.2 67 -1.5 29.2
06:05 1017 30.03 846 24.98 3.7 38.7 68 -1.7 28.9
06:10 1017 30.03 846 24.98 3.8 38.8 67 -1.7 28.9
06:15 1017 30.03 846 24.98 3.4 38.2 69 -1.7 28.9
06:20 1017 30.03 846 24.98 3.1 37.5 71 -1.7 28.9
06:25 1017 30.03 846 24.98 3 37.4 70 -1.8 28.7
06:30 1017 30.03 846 24.98 2.9 37.2 71 -1.8 28.8
06:35 1017 30.03 846 24.98 2.9 37.2 71 -1.8 28.8
06:40 1017 30.03 846 24.98 2.9 37.1 72 -1.7 29
06:45 1017 30.03 846 24.98 2.4 36.3 74 -1.7 28.9
06:50 1017 30.03 846 24.98 2.2 36 75 -1.8 28.7
06:55 1017 30.03 846 24.98 2.5 36.5 73 -1.9 28.6
07:00 1017 30.03 846 24.98 2.9 37.2 71 -1.8 28.8
07:05 1017 30.03 846 24.98 3.3 37.9 69 -1.9 28.7
07:10 1017 30.03 846 24.98 4.2 39.5 64 -2 28.5
07:15 1017 30.03 846 24.98 4.8 40.6 62 -1.8 28.7
07:20 1017 30.03 846 24.98 4.7 40.5 64 -1.5 29.2
07:25 1017 30.03 846 24.98 3.6 38.5 67 -1.9 28.6
07:30 1017 30.03 846 24.98 3.3 38 68 -2 28.4
07:35 1017 30.03 846 24.98 4.3 39.8 64 -1.9 28.6
07:40 1017 30.03 846 24.98 4.4 39.9 65 -1.6 29
07:45 1017 30.03 846 24.98 3.9 39 67 -1.7 29
07:50 1017 30.03 846 24.98 3.7 38.6 67 -1.9 28.6
07:55 1017 30.03 846 24.98 3.8 38.8 67 -1.7 28.9
08:00 1017 30.03 846 24.98 3.5 38.2 69 -1.8 28.8
08:05 1017 30.03 846 24.98 3.2 37.8 69 -1.9 28.5
08:10 1017 30.03 846 24.98 3.4 38.1 69 -1.8 28.7
08:15 1017 30.03 846 24.98 3.6 38.4 67 -1.9 28.6
08:20 1017 30.03 846 24.98 4 39.2 66 -1.8 28.7
08:25 1017 30.03 846 24.98 4.2 39.5 66 -1.6 29.1
08:30 1017 30.03 846 24.98 4.3 39.7 65 -1.7 29
08:35 1017 30.03 846 24.98 4.4 39.9 65 -1.6 29.2
08:40 1017 30.03 846 24.98 4.8 40.6 64 -1.5 29.2
08:45 1017 30.03 846 24.98 5.2 41.4 62 -1.5 29.4
08:50 1017 30.03 846 24.98 5.4 41.8 62 -1.3 29.6
08:55 1017 30.03 846 24.98 5.7 42.2 61 -1.3 29.7
09:00 1017 30.03 846 24.98 5.9 42.7 61 -1.1 30.1
09:05 1017 30.03 847 25.01 6.1 42.9 60 -1 30.1
09:10 1017 30.03 847 25.01 6.1 43.1 59 -1.2 29.9
09:15 1017 30.03 847 25.01 6.5 43.7 59 -1 30.3
09:20 1017 30.03 847 25.01 7.1 44.7 56 -1 30.1
09:25 1017 30.03 847 25.01 7.3 45.2 56 -0.8 30.6
09:30 1017 30.03 847 25.01 7.4 45.4 57 -0.5 31
09:35 1017 30.03 847 25.01 7.8 46.1 55 -0.6 30.8
09:40 1017 30.03 847 25.01 8.5 47.3 52 -0.7 30.7
09:45 1017 30.03 847 25.01 8.9 47.9 53 -0.3 31.5
09:50 1017 30.03 847 25.01 9.2 48.6 51 -0.4 31.3
09:55 1017 30.03 847 25.01 9.7 49.4 50 -0.2 31.6
10:00 1017 30.03 847 25.01 9.7 49.5 51 0.1 32.1
10:05 1017 30.03 847 25.01 10.2 50.3 47 -0.5 31.2
10:10 1017 30.03 847 25.01 10.6 51 48 0 32.1
10:15 1017 30.03 847 25.01 10.6 51.1 47 -0.2 31.7
10:20 1017 30.03 847 25.01 10.8 51.5 45 -0.6 31
10:25 1017 30.03 846 24.98 11.4 52.4 45 -0 31.9
10:30 1017 30.03 846 24.98 11.9 53.5 43 -0.2 31.6
10:35 1017 30.03 846 24.98 12 53.5 42 -0.5 31.1
10:40 1017 30.03 846 24.98 11.4 52.5 44 -0.5 31
10:45 1017 30.03 846 24.98 11.8 53.2 43 -0.4 31.2
10:50 1017 30.03 846 24.98 11.8 53.2 43 -0.3 31.5
10:55 1017 30.03 846 24.98 11.4 52.6 45 -0.1 31.9
11:00 1017 30.03 846 24.98 11.7 53 43 -0.3 31.4
11:05 1017 30.03 846 24.98 12.1 53.8 41 -0.7 30.8
11:10 1017 30.03 846 24.98 12.7 54.8 40 -0.3 31.4
11:15 1017 30.03 846 24.98 12.1 53.8 42 -0.4 31.3
11:20 1017 30.03 846 24.98 12.8 55.1 39 -0.6 31
11:25 1017 30.03 846 24.98 13.2 55.7 41 0.3 32.6
11:30 1017 30.03 846 24.98 12.8 55 40 -0.2 31.6
11:35 1017 30.03 846 24.98 13.8 56.8 37 -0.5 31.1
11:40 1017 30.03 846 24.98 13.9 57 40 0.4 32.8
11:45 1017 30.03 846 24.98 13 55.3 42 0.4 32.8
11:50 1017 30.03 846 24.98 12.6 54.7 41 -0.1 31.9
11:55 1017 30.03 846 24.98 13.2 55.7 41 0.2 32.4
12:00 1017 30.03 846 24.98 13.5 56.2 41 0.5 32.9
12:05 1017 30.03 846 24.98 14.3 57.7 38 0.1 32.1
12:10 1017 30.03 846 24.98 14.5 58.1 36 -0.1 31.8
12:15 1017 30.03 846 24.98 14.6 58.2 39 1 33.7
12:20 1017 30.03 846 24.98 14.4 57.9 38 0.4 32.8
12:25 1017 30.03 846 24.98 14.9 58.9 38 0.8 33.4
12:30 1017 30.03 846 24.98 15.1 59.3 39 1.3 34.4
12:35 1017 30.03 846 24.98 15 59.1 37 0.6 33.1
12:40 1017 30.03 846 24.98 14.5 58.1 41 1.6 34.9
12:45 1016 30 846 24.98 14.4 57.9 39 0.7 33.2
12:50 1016 30 846 24.98 13.6 56.4 43 1.2 34.2
12:55 1016 30 846 24.98 14.5 58 38 0.3 32.5
13:00 1016 30 846 24.98 14.1 57.3 41 1 33.7
13:05 1016 30 846 24.98 13.4 56.1 42 0.9 33.7
13:10 1016 30 846 24.98 14.3 57.7 39 0.4 32.8
13:15 1016 30 845 24.95 15.6 60 35 0.2 32.3
13:20 1016 30 845 24.95 15.5 60 37 1.1 34
13:25 1016 30 845 24.95 15.5 59.9 38 1.2 34.2
13:30 1016 30 845 24.95 15.5 59.8 38 1.5 34.6
13:35 1016 30 845 24.95 16 60.7 36 0.9 33.6
13:40 1016 30 845 24.95 16.6 61.8 36 1.4 34.6
13:45 1016 30 845 24.95 16.8 62.2 34 0.9 33.6
13:50 1016 30 845 24.95 16.8 62.3 34 1.2 34.1
13:55 1016 30 845 24.95 17 62.7 34 1.2 34.2
14:00 1016 30 845 24.95 16.5 61.7 35 1.2 34.2
14:05 1016 30 845 24.95 16.4 61.6 34 0.5 32.8
14:10 1016 30 845 24.95 15.8 60.4 36 0.6 33.2
14:15 1016 30 845 24.95 15.9 60.7 34 0.3 32.5
14:20 1015 29.97 845 24.95 17.3 63.1 31 0.2 32.3
14:25 1015 29.97 845 24.95 17.2 62.9 32 0.7 33.2
14:30 1015 29.97 845 24.95 16.8 62.2 30 -0.6 30.9
14:35 1015 29.97 844 24.92 16.3 61.3 31 -0.7 30.8
14:40 1015 29.97 844 24.92 16.8 62.3 30 -0.5 31
14:45 1015 29.97 844 24.92 17.9 64.2 30 0 32
14:50 1015 29.97 844 24.92 18 64.4 29 -0.2 31.7
14:55 1015 29.97 844 24.92 18.6 65.5 28 0.1 32.2
15:00 1015 29.97 844 24.92 18.1 64.6 30 0.5 32.9
15:05 1015 29.97 844 24.92 17.2 63 30 -0.3 31.5
15:10 1015 29.97 844 24.92 18.2 64.8 29 -0.1 31.8
15:15 1015 29.97 844 24.92 18.7 65.7 27 -0.7 30.8
15:20 1015 29.97 844 24.92 19.1 66.3 28 0.1 32.3
15:25 1015 29.97 844 24.92 18.9 66.1 27 -0.1 31.8
15:30 1015 29.97 844 24.92 18.2 64.8 26 -1.6 29.1
15:35 1015 29.97 844 24.92 18.1 64.5 26 -1.6 29
15:40 1015 29.97 844 24.92 18.6 65.4 26 -1.2 29.9
15:45 1015 29.97 844 24.92 19.2 66.5 26 -0.6 30.9
15:50 1015 29.97 844 24.92 18.2 64.8 27 -1.2 29.9
15:55 1015 29.97 844 24.92 18.3 64.9 27 -0.9 30.3
16:00 1015 29.97 844 24.92 18.9 66.1 25 -1.4 29.6
16:05 1015 29.97 844 24.92 18.8 65.9 26 -1.1 30.1
16:10 1015 29.97 844 24.92 18.7 65.7 27 -0.5 31.1
16:15 1015 29.97 844 24.92 19.1 66.4 24 -1.6 29.1
16:20 1015 29.97 844 24.92 19.9 67.7 23 -1.8 28.8
16:25 1015 29.97 844 24.92 18.8 65.8 24 -2 28.3
16:30 1015 29.97 844 24.92 18.2 64.7 25 -2 28.4
16:35 1015 29.97 844 24.92 18.8 65.9 24 -1.9 28.5
16:40 1015 29.97 844 24.92 19.3 66.7 23 -2.1 28.2
16:45 1015 29.97 844 24.92 19.5 67 23 -1.8 28.7
16:50 1015 29.97 844 24.92 19.5 67 24 -1.7 28.9
16:55 1015 29.97 844 24.92 19 66.3 24 -1.7 29
17:00 1015 29.97 844 24.92 18.8 65.8 25 -1.4 29.6
17:05 1015 29.97 844 24.92 18.8 65.8 24 -2 28.3
17:10 1015 29.97 844 24.92 18.7 65.7 25 -1.8 28.8
17:15 1015 29.97 844 24.92 19.2 66.6 24 -1.4 29.4
17:20 1015 29.97 844 24.92 18.8 65.9 25 -1.7 28.9
17:25 1015 29.97 844 24.92 18.9 66 24 -1.7 28.9
17:30 1015 29.97 844 24.92 19.2 66.5 24 -1.7 29
17:35 1015 29.97 844 24.92 18.7 65.7 25 -1.4 29.5
17:40 1015 29.97 844 24.92 18.2 64.7 26 -1.5 29.2
17:45 1015 29.97 844 24.92 18.6 65.4 25 -1.5 29.3
17:50 1015 29.97 844 24.92 18.9 66 25 -1.3 29.7
17:55 1015 29.97 844 24.92 18.9 66 25 -1.4 29.4
18:00 1015 29.97 844 24.92 18.8 65.9 25 -1.6 29.1
18:05 1015 29.97 844 24.92 18.4 65.1 26 -1.4 29.5
18:10 1014 29.94 844 24.92 18 64.5 28 -0.9 30.5
18:15 1014 29.94 844 24.92 17.8 64.1 26 -1.6 29.1
18:20 1014 29.94 844 24.92 17.4 63.2 27 -1.6 29.1
18:25 1014 29.94 844 24.92 17 62.6 27 -1.9 28.7
18:30 1014 29.94 844 24.92 16.8 62.2 28 -1.6 29.2
18:35 1014 29.94 844 24.92 16.6 61.9 30 -1 30.2
18:40 1014 29.94 843 24.89 16.2 61.2 32 -0.6 30.9
18:45 1014 29.94 843 24.89 16.1 61 32 -0.7 30.8
18:50 1014 29.94 844 24.92 15.8 60.4 39 1.8 35.2
18:55 1014 29.94 844 24.92 14.4 57.8 43 2.1 35.7
19:00 1014 29.94 844 24.92 13.5 56.3 45 1.9 35.4
19:05 1014 29.94 844 24.92 12.8 55 48 2 35.7
19:10 1014 29.94 844 24.92 12.3 54.1 51 2.4 36.3
19:15 1014 29.94 844 24.92 11.9 53.4 52 2.5 36.5
19:20 1014 29.94 844 24.92 11.6 53 54 2.8 37.1
19:25 1014 29.94 844 24.92 11.3 52.3 56 2.9 37.2
19:30 1014 29.94 844 24.92 11 51.8 56 2.7 36.9
19:35 1014 29.94 844 24.92 10.9 51.6 56 2.5 36.4
19:40 1014 29.94 844 24.92 10.8 51.5 55 2.3 36.2
19:45 1014 29.94 844 24.92 10.7 51.3 56 2.3 36.2
19:50 1014 29.94 844 24.92 10.7 51.3 56 2.4 36.4
19:55 1014 29.94 844 24.92 10.6 51.1 57 2.4 36.4
20:00 1015 29.97 844 24.92 10.5 51 57 2.4 36.3
20:05 1015 29.97 844 24.92 10.5 50.8 57 2.3 36.1
20:10 1015 29.97 844 24.92 10.4 50.7 56 2.1 35.8
20:15 1015 29.97 844 24.92 10.3 50.6 56 1.9 35.5
20:20 1015 29.97 844 24.92 10.3 50.5 56 1.9 35.4
20:25 1015 29.97 844 24.92 10.3 50.5 56 1.8 35.3
20:30 1015 29.97 844 24.92 10.2 50.3 56 1.8 35.2
20:35 1015 29.97 844 24.92 10.1 50.1 57 1.9 35.3
20:40 1015 29.97 844 24.92 9.9 49.9 57 1.9 35.4
20:45 1015 29.97 844 24.92 9.8 49.7 58 1.9 35.5
20:50 1015 29.97 844 24.92 9.7 49.5 58 1.9 35.4
20:55 1015 29.97 844 24.92 9.6 49.3 58 1.9 35.4
21:00 1015 29.97 844 24.92 9.5 49.1 58 1.7 35.1
21:05 1015 29.97 844 24.92 9.4 49 58 1.7 35
21:10 1015 29.97 844 24.92 9.3 48.8 58 1.6 34.9
21:15 1015 29.97 844 24.92 9.3 48.8 58 1.6 34.8
21:20 1015 29.97 844 24.92 9.2 48.6 59 1.6 34.9
21:25 1015 29.97 844 24.92 9.1 48.4 59 1.6 34.9
21:30 1015 29.97 844 24.92 9 48.1 59 1.5 34.7
21:35 1015 29.97 844 24.92 8.9 48.1 60 1.5 34.7
21:40 1015 29.97 844 24.92 8.9 48 60 1.7 35
21:45 1015 29.97 844 24.92 8.8 47.8 61 1.7 35
21:50 1015 29.97 844 24.92 8.7 47.6 61 1.7 35
21:55 1015 29.97 844 24.92 8.6 47.5 62 1.7 35.1
22:00 1015 29.97 844 24.92 8.6 47.4 62 1.8 35.3
22:05 1015 29.97 844 24.92 8.5 47.3 63 1.9 35.4
22:10 1015 29.97 844 24.92 8.5 47.3 63 1.8 35.3
22:15 1015 29.97 844 24.92 8.5 47.3 63 1.9 35.4
22:20 1015 29.97 844 24.92 8.4 47.1 63 1.9 35.4
22:25 1015 29.97 844 24.92 8.3 46.9 64 1.9 35.3
22:30 1015 29.97 844 24.92 8.2 46.8 64 1.8 35.3
22:35 1015 29.97 844 24.92 8.2 46.7 64 1.8 35.2
22:40 1015 29.97 844 24.92 8.1 46.5 65 1.9 35.4
22:45 1015 29.97 844 24.92 8 46.5 65 1.9 35.4
22:50 1015 29.97 844 24.92 7.9 46.3 66 1.9 35.5
22:55 1015 29.97 844 24.92 7.9 46.3 66 1.9 35.5
23:00 1015 29.97 844 24.92 7.9 46.2 66 2.1 35.7
23:05 1015 29.97 844 24.92 7.8 46.1 67 2.1 35.8
23:10 1015 29.97 844 24.92 7.9 46.2 67 2.2 35.9
23:15 1015 29.97 844 24.92 7.8 46.1 68 2.2 36
23:20 1015 29.97 844 24.92 7.7 45.9 68 2.3 36.1
23:25 1015 29.97 844 24.92 7.7 45.8 68 2.2 36
23:30 1015 29.97 844 24.92 7.7 45.8 69 2.3 36.2
23:35 1015 29.97 844 24.92 7.6 45.7 69 2.4 36.3
23:40 1015 29.97 844 24.92 7.6 45.6 70 2.4 36.3
23:45 1015 29.97 844 24.92 7.5 45.5 70 2.3 36.2
23:50 1015 29.97 844 24.92 7.5 45.5 69 2.3 36.1
23:55 1015 29.97 844 24.92 7.5 45.6 69 2.3 36.1
24:00 1015 29.97 844 24.92 7.5 45.5 69 2.3 36.1